Wetterdaten: Woche 23.04.07 - 29.04.07 (KW17)
Datum Zeit Temperatur Luftfeuchte Luftdruck Niederschlag Wind Richtung Sonnenschein UV-Strahlung Solar Taupunkt Windchill Windben
23.04.2007 00:00 11.8 C 74 % 1021.8 hPa 0.0 l/m 0.5 km/h (0 Bft) O 0.00 h 0.0 UV-I 0 W/m 7.3 C 11.8 C 1.3 km/h (1 Bft)
23.04.2007 01:00 10.3 C 79 % 1022.2 hPa 0.0 l/m 0.6 km/h (0 Bft) O 0.00 h 0.0 UV-I 0 W/m 6.8 C 10.3 C 1.2 km/h (1 Bft)
23.04.2007 02:00 9.6 C 79 % 1022.4 hPa 0.0 l/m 0.6 km/h (0 Bft) O 0.00 h 0.0 UV-I 0 W/m 6.2 C 9.6 C 1.5 km/h (1 Bft)
23.04.2007 03:00 8.8 C 82 % 1022.4 hPa 0.0 l/m 0.3 km/h (0 Bft) O 0.00 h 0.0 UV-I 0 W/m 5.9 C 8.8 C 0.8 km/h (0 Bft)
23.04.2007 04:00 8.1 C 84 % 1022.5 hPa 0.0 l/m 0.7 km/h (0 Bft) O 0.00 h 0.0 UV-I 0 W/m 5.6 C 8.1 C 1.6 km/h (1 Bft)
23.04.2007 05:00 7.6 C 87 % 1022.7 hPa 0.0 l/m 0.3 km/h (0 Bft) O 0.00 h 0.0 UV-I 0 W/m 5.5 C 7.6 C 0.6 km/h (0 Bft)
23.04.2007 06:00 7.1 C 89 % 1023.3 hPa 0.0 l/m 0.6 km/h (0 Bft) O 0.02 h 0.0 UV-I 13 W/m 5.3 C 7.1 C 1.0 km/h (0 Bft)
23.04.2007 07:00 7.5 C 90 % 1023.8 hPa 0.0 l/m 0.8 km/h (0 Bft) O 0.13 h 0.6 UV-I 51 W/m 6.0 C 7.5 C 1.7 km/h (1 Bft)
23.04.2007 08:00 10.5 C 80 % 1023.9 hPa 0.0 l/m 0.5 km/h (0 Bft) O-NO 1.00 h 1.1 UV-I 249 W/m 7.2 C 10.5 C 1.5 km/h (1 Bft)
23.04.2007 09:00 13.9 C 72 % 1023.8 hPa 0.0 l/m 3.0 km/h (1 Bft) SO 1.00 h 2.0 UV-I 413 W/m 9.0 C 13.9 C 5.0 km/h (1 Bft)
23.04.2007 10:00 17.9 C 58 % 1023.5 hPa 0.0 l/m 2.2 km/h (1 Bft) S-SO 1.00 h 3.2 UV-I 563 W/m 9.6 C 17.9 C 4.4 km/h (1 Bft)
23.04.2007 11:00 21.0 C 48 % 1022.9 hPa 0.0 l/m 3.4 km/h (1 Bft) S 1.00 h 4.5 UV-I 684 W/m 9.5 C 21.0 C 6.8 km/h (2 Bft)
23.04.2007 12:00 23.5 C 37 % 1022.3 hPa 0.0 l/m 4.6 km/h (1 Bft) S-SO 1.00 h 5.5 UV-I 765 W/m 7.9 C 23.5 C 8.6 km/h (2 Bft)
23.04.2007 13:00 24.9 C 32 % 1021.7 hPa 0.0 l/m 5.0 km/h (1 Bft) S-SO 1.00 h 5.8 UV-I 795 W/m 7.1 C 24.9 C 8.6 km/h (2 Bft)
23.04.2007 14:00 25.6 C 27 % 1021.3 hPa 0.0 l/m 8.0 km/h (2 Bft) W-SW 1.00 h 5.5 UV-I 772 W/m 4.9 C 25.6 C 12.8 km/h (3 Bft)
23.04.2007 15:00 26.3 C 24 % 1020.7 hPa 0.0 l/m 8.5 km/h (2 Bft) W 1.00 h 4.3 UV-I 679 W/m 4.1 C 26.3 C 13.3 km/h (3 Bft)
23.04.2007 16:00 26.5 C 25 % 1020.2 hPa 0.0 l/m 7.6 km/h (2 Bft) W 1.00 h 2.9 UV-I 557 W/m 4.7 C 26.5 C 11.6 km/h (2 Bft)
23.04.2007 17:00 26.4 C 25 % 1019.8 hPa 0.0 l/m 8.4 km/h (2 Bft) W 1.00 h 1.7 UV-I 412 W/m 4.5 C 26.4 C 13.0 km/h (3 Bft)
23.04.2007 18:00 25.5 C 26 % 1019.7 hPa 0.0 l/m 7.8 km/h (2 Bft) W 0.95 h 1.1 UV-I 233 W/m 4.8 C 25.5 C 11.8 km/h (2 Bft)
23.04.2007 19:00 24.1 C 31 % 1019.4 hPa 0.0 l/m 4.0 km/h (1 Bft) W 0.60 h 1.0 UV-I 91 W/m 5.7 C 24.1 C 5.9 km/h (2 Bft)
23.04.2007 20:00 19.9 C 44 % 1019.7 hPa 0.0 l/m 2.4 km/h (1 Bft) SO 0.02 h 0.0 UV-I 12 W/m 7.4 C 19.9 C 3.7 km/h (1 Bft)
23.04.2007 21:00 17.6 C 52 % 1020.0 hPa 0.0 l/m 2.9 km/h (1 Bft) O-SO 0.00 h 0.0 UV-I 0 W/m 7.7 C 17.6 C 4.5 km/h (1 Bft)
23.04.2007 22:00 14.8 C 63 % 1020.2 hPa 0.0 l/m 0.7 km/h (0 Bft) O-SO 0.00 h 0.0 UV-I 0 W/m 7.9 C 14.8 C 1.1 km/h (1 Bft)
23.04.2007 23:00 13.2 C 71 % 1020.2 hPa 0.0 l/m 0.7 km/h (0 Bft) O-SO 0.00 h 0.0 UV-I 0 W/m 7.9 C 13.2 C 1.6 km/h (1 Bft)
24.04.2007 00:00 12.1 C 75 % 1020.3 hPa 0.0 l/m 0.9 km/h (0 Bft) O-SO 0.00 h 0.0 UV-I 0 W/m 7.8 C 12.1 C 1.9 km/h (1 Bft)
24.04.2007 01:00 11.3 C 78 % 1020.2 hPa 0.0 l/m 1.1 km/h (0 Bft) O-SO 0.00 h 0.0 UV-I 0 W/m 7.6 C 11.3 C 2.0 km/h (1 Bft)
24.04.2007 02:00 10.6 C 81 % 1020.1 hPa 0.0 l/m 0.0 km/h (0 Bft) O-SO 0.00 h 0.0 UV-I 0 W/m 7.4 C 10.6 C 0.1 km/h (0 Bft)
24.04.2007 03:00 9.8 C 84 % 1020.1 hPa 0.0 l/m 0.6 km/h (0 Bft) O-SO 0.00 h 0.0 UV-I 0 W/m 7.2 C 9.8 C 1.4 km/h (1 Bft)
24.04.2007 04:00 9.3 C 86 % 1020.0 hPa 0.0 l/m 0.0 km/h (0 Bft) N 0.00 h 0.0 UV-I 0 W/m 7.1 C 9.3 C 0.3 km/h (0 Bft)
24.04.2007 05:00 8.8 C 88 % 1019.9 hPa 0.0 l/m 0.3 km/h (0 Bft) O-SO 0.00 h 0.0 UV-I 0 W/m 6.9 C 8.8 C 0.7 km/h (0 Bft)
24.04.2007 06:00 8.8 C 89 % 1020.0 hPa 0.0 l/m 0.1 km/h (0 Bft) O-SO 0.02 h 0.0 UV-I 18 W/m 7.1 C 8.8 C 0.1 km/h (0 Bft)
24.04.2007 07:00 9.3 C 88 % 1020.4 hPa 0.0 l/m 0.1 km/h (0 Bft) O-SO 0.07 h 0.5 UV-I 59 W/m 7.5 C 9.3 C 0.3 km/h (0 Bft)
24.04.2007 08:00 11.9 C 81 % 1020.5 hPa 0.0 l/m 0.2 km/h (0 Bft) O-SO 0.85 h 1.0 UV-I 230 W/m 8.8 C 11.9 C 0.7 km/h (0 Bft)
24.04.2007 09:00 15.0 C 72 % 1020.5 hPa 0.0 l/m 2.3 km/h (1 Bft) SO 0.80 h 2.0 UV-I 368 W/m 10.0 C 15.0 C 4.2 km/h (1 Bft)
24.04.2007 10:00 18.6 C 61 % 1020.3 hPa 0.0 l/m 1.8 km/h (1 Bft) W-SW 1.00 h 3.3 UV-I 545 W/m 10.9 C 18.6 C 4.1 km/h (1 Bft)
24.04.2007 11:00 21.6 C 51 % 1019.9 hPa 0.0 l/m 3.3 km/h (1 Bft) S-SO 1.00 h 4.9 UV-I 698 W/m 11.1 C 21.6 C 6.4 km/h (2 Bft)
24.04.2007 12:00 23.3 C 48 % 1019.2 hPa 0.0 l/m 3.1 km/h (1 Bft) S-SO 0.82 h 5.1 UV-I 564 W/m 11.7 C 23.3 C 5.9 km/h (2 Bft)
24.04.2007 13:00 24.6 C 37 % 1018.5 hPa 0.0 l/m 7.3 km/h (2 Bft) W 1.00 h 5.9 UV-I 708 W/m 8.6 C 24.6 C 11.2 km/h (2 Bft)
24.04.2007 14:00 25.3 C 30 % 1018.2 hPa 0.0 l/m 7.2 km/h (2 Bft) W-NW 0.92 h 5.2 UV-I 656 W/m 6.5 C 25.3 C 10.7 km/h (2 Bft)
24.04.2007 15:00 26.2 C 27 % 1017.6 hPa 0.0 l/m 4.5 km/h (1 Bft) W-NW 1.00 h 4.2 UV-I 627 W/m 5.5 C 26.2 C 7.4 km/h (2 Bft)
24.04.2007 16:00 26.3 C 27 % 1016.9 hPa 0.0 l/m 4.3 km/h (1 Bft) W-NW 0.98 h 2.9 UV-I 521 W/m 5.9 C 26.3 C 6.6 km/h (2 Bft)
24.04.2007 17:00 25.5 C 30 % 1016.5 hPa 0.0 l/m 1.9 km/h (1 Bft) W-SW 0.67 h 1.5 UV-I 334 W/m 6.5 C 25.5 C 3.9 km/h (1 Bft)
24.04.2007 18:00 25.6 C 29 % 1016.1 hPa 0.0 l/m 1.8 km/h (1 Bft) W-NW 0.82 h 1.2 UV-I 233 W/m 6.4 C 25.6 C 3.3 km/h (1 Bft)
24.04.2007 19:00 24.1 C 35 % 1016.0 hPa 0.0 l/m 0.4 km/h (0 Bft) W-NW 0.13 h 1.1 UV-I 79 W/m 7.4 C 24.1 C 0.8 km/h (0 Bft)
24.04.2007 20:00 21.1 C 48 % 1016.0 hPa 0.0 l/m 0.6 km/h (0 Bft) W-NW 0.02 h 0.0 UV-I 16 W/m 9.6 C 21.1 C 1.6 km/h (1 Bft)
24.04.2007 21:00 19.0 C 56 % 1016.1 hPa 0.0 l/m 0.7 km/h (0 Bft) O 0.00 h 0.0 UV-I 0 W/m 9.9 C 19.0 C 1.5 km/h (1 Bft)
24.04.2007 22:00 16.9 C 63 % 1016.0 hPa 0.0 l/m 0.4 km/h (0 Bft) O-SO 0.00 h 0.0 UV-I 0 W/m 9.9 C 16.9 C 0.9 km/h (0 Bft)
24.04.2007 23:00 15.6 C 69 % 1015.9 hPa 0.0 l/m 1.2 km/h (1 Bft) O-SO 0.00 h 0.0 UV-I 0 W/m 10.0 C 15.6 C 2.2 km/h (1 Bft)
25.04.2007 00:00 14.1 C 76 % 1015.8 hPa 0.0 l/m 1.5 km/h (1 Bft) O-SO 0.00 h 0.0 UV-I 0 W/m 9.9 C 14.1 C 2.6 km/h (1 Bft)
25.04.2007 01:00 13.2 C 79 % 1015.7 hPa 0.0 l/m 0.5 km/h (0 Bft) O-SO 0.00 h 0.0 UV-I 0 W/m 9.7 C 13.2 C 1.0 km/h (0 Bft)
25.04.2007 02:00 12.7 C 81 % 1015.6 hPa 0.0 l/m 0.0 km/h (0 Bft) N 0.00 h 0.0 UV-I 0 W/m 9.5 C 12.7 C 0.2 km/h (0 Bft)
25.04.2007 03:00 12.2 C 83 % 1015.5 hPa 0.0 l/m 0.2 km/h (0 Bft) O-SO 0.00 h 0.0 UV-I 0 W/m 9.4 C 12.2 C 1.5 km/h (1 Bft)
25.04.2007 04:00 11.3 C 85 % 1015.6 hPa 0.0 l/m 0.0 km/h (0 Bft) O 0.00 h 0.0 UV-I 0 W/m 9.0 C 11.3 C 0.5 km/h (0 Bft)
25.04.2007 05:00 10.3 C 88 % 1015.3 hPa 0.0 l/m 0.0 km/h (0 Bft) N 0.00 h 0.0 UV-I 0 W/m 8.4 C 10.3 C 0.3 km/h (0 Bft)
25.04.2007 06:00 9.7 C 90 % 1015.4 hPa 0.0 l/m 0.1 km/h (0 Bft) O 0.00 h 0.0 UV-I 10 W/m 8.1 C 9.7 C 0.5 km/h (0 Bft)
25.04.2007 07:00 9.8 C 89 % 1015.8 hPa 0.0 l/m 0.0 km/h (0 Bft) N 0.00 h 1.3 UV-I 31 W/m 8.1 C 9.8 C 0.5 km/h (0 Bft)
25.04.2007 08:00 12.1 C 82 % 1016.0 hPa 0.0 l/m 0.2 km/h (0 Bft) O 0.95 h 1.1 UV-I 292 W/m 9.1 C 12.1 C 0.7 km/h (0 Bft)
25.04.2007 09:00 15.3 C 72 % 1015.8 hPa 0.0 l/m 1.1 km/h (1 Bft) N-NO 0.82 h 1.9 UV-I 376 W/m 10.3 C 15.3 C 2.7 km/h (1 Bft)
25.04.2007 10:00 18.4 C 60 % 1015.3 hPa 0.0 l/m 2.0 km/h (1 Bft) N 1.00 h 3.4 UV-I 562 W/m 10.5 C 18.4 C 3.9 km/h (1 Bft)
25.04.2007 11:00 20.8 C 56 % 1014.8 hPa 0.0 l/m 4.2 km/h (1 Bft) O-SO 1.00 h 4.9 UV-I 687 W/m 11.7 C 20.8 C 6.7 km/h (2 Bft)
25.04.2007 12:00 22.6 C 51 % 1014.1 hPa 0.0 l/m 4.1 km/h (1 Bft) O-SO 1.00 h 5.7 UV-I 715 W/m 11.9 C 22.6 C 6.8 km/h (2 Bft)
25.04.2007 13:00 24.0 C 43 % 1013.4 hPa 0.0 l/m 9.3 km/h (2 Bft) O-SO 1.00 h 6.3 UV-I 781 W/m 10.6 C 24.0 C 14.1 km/h (3 Bft)
25.04.2007 14:00 25.2 C 39 % 1012.9 hPa 0.0 l/m 8.5 km/h (2 Bft) O-SO 1.00 h 5.7 UV-I 742 W/m 10.0 C 25.2 C 13.2 km/h (3 Bft)
25.04.2007 15:00 25.9 C 33 % 1012.3 hPa 0.0 l/m 8.0 km/h (2 Bft) O-SO 1.00 h 4.5 UV-I 662 W/m 8.4 C 25.9 C 12.9 km/h (3 Bft)
25.04.2007 16:00 26.3 C 31 % 1011.9 hPa 0.0 l/m 5.7 km/h (1 Bft) O-SO 1.00 h 2.9 UV-I 522 W/m 7.8 C 26.3 C 9.4 km/h (2 Bft)
25.04.2007 17:00 26.1 C 30 % 1011.7 hPa 0.0 l/m 7.7 km/h (2 Bft) O-SO 1.00 h 1.8 UV-I 404 W/m 7.1 C 26.1 C 11.9 km/h (2 Bft)
25.04.2007 18:00 25.4 C 30 % 1011.8 hPa 0.0 l/m 6.9 km/h (2 Bft) O-SO 0.93 h 1.1 UV-I 228 W/m 6.5 C 25.4 C 10.2 km/h (2 Bft)
25.04.2007 19:00 24.4 C 33 % 1011.9 hPa 0.0 l/m 1.8 km/h (1 Bft) O 0.22 h 1.1 UV-I 84 W/m 6.9 C 24.4 C 3.6 km/h (1 Bft)
25.04.2007 20:00 22.3 C 40 % 1012.3 hPa 0.0 l/m 1.2 km/h (1 Bft) O-NO 0.00 h 0.0 UV-I 11 W/m 8.2 C 22.3 C 3.6 km/h (1 Bft)
25.04.2007 21:00 20.7 C 48 % 1013.0 hPa 0.0 l/m 1.6 km/h (1 Bft) N-NO 0.00 h 0.0 UV-I 0 W/m 9.3 C 20.7 C 4.3 km/h (1 Bft)
25.04.2007 22:00 18.2 C 58 % 1013.5 hPa 0.0 l/m 0.4 km/h (0 Bft) O-SO 0.00 h 0.0 UV-I 0 W/m 9.8 C 18.2 C 1.5 km/h (1 Bft)
25.04.2007 23:00 17.0 C 62 % 1013.9 hPa 0.0 l/m 0.2 km/h (0 Bft) O-SO 0.00 h 0.0 UV-I 0 W/m 9.7 C 17.0 C 1.0 km/h (0 Bft)
26.04.2007 00:00 15.8 C 66 % 1013.9 hPa 0.0 l/m 0.3 km/h (0 Bft) O 0.00 h 0.0 UV-I 0 W/m 9.5 C 15.8 C 1.8 km/h (1 Bft)
26.04.2007 01:00 15.3 C 65 % 1013.8 hPa 0.0 l/m 1.0 km/h (0 Bft) O 0.00 h 0.0 UV-I 0 W/m 8.8 C 15.3 C 2.4 km/h (1 Bft)
26.04.2007 02:00 13.8 C 69 % 1013.8 hPa 0.0 l/m 2.9 km/h (1 Bft) O-SO 0.00 h 0.0 UV-I 0 W/m 8.1 C 13.8 C 4.3 km/h (1 Bft)
26.04.2007 03:00 13.0 C 70 % 1013.9 hPa 0.0 l/m 1.8 km/h (1 Bft) O 0.00 h 0.0 UV-I 0 W/m 7.7 C 13.0 C 3.0 km/h (1 Bft)
26.04.2007 04:00 11.3 C 76 % 1014.2 hPa 0.0 l/m 0.8 km/h (0 Bft) O 0.00 h 0.0 UV-I 0 W/m 7.1 C 11.3 C 1.8 km/h (1 Bft)
26.04.2007 05:00 10.5 C 79 % 1014.4 hPa 0.0 l/m 0.1 km/h (0 Bft) O 0.00 h 0.0 UV-I 0 W/m 7.0 C 10.5 C 0.8 km/h (0 Bft)
26.04.2007 06:00 9.6 C 81 % 1014.8 hPa 0.0 l/m 1.3 km/h (1 Bft) O-SO 0.00 h 0.0 UV-I 13 W/m 6.4 C 9.6 C 2.2 km/h (1 Bft)
26.04.2007 07:00 10.0 C 83 % 1015.0 hPa 0.0 l/m 0.3 km/h (0 Bft) O-SO 0.17 h 0.6 UV-I 62 W/m 7.2 C 10.0 C 0.4 km/h (0 Bft)
26.04.2007 08:00 13.7 C 71 % 1015.2 hPa 0.0 l/m 1.0 km/h (0 Bft) O-SO 0.97 h 1.0 UV-I 267 W/m 8.5 C 13.7 C 2.2 km/h (1 Bft)
26.04.2007 09:00 16.2 C 56 % 1015.2 hPa 0.0 l/m 5.8 km/h (2 Bft) O-SO 0.83 h 2.1 UV-I 399 W/m 7.4 C 16.2 C 9.0 km/h (2 Bft)
26.04.2007 10:00 18.1 C 52 % 1015.3 hPa 0.0 l/m 2.5 km/h (1 Bft) S-SO 0.77 h 3.1 UV-I 488 W/m 8.1 C 18.1 C 4.8 km/h (1 Bft)
26.04.2007 11:00 19.0 C 50 % 1015.2 hPa 0.0 l/m 2.1 km/h (1 Bft) SO 0.72 h 4.0 UV-I 543 W/m 8.4 C 19.0 C 4.1 km/h (1 Bft)
26.04.2007 12:00 22.0 C 42 % 1014.5 hPa 0.0 l/m 3.3 km/h (1 Bft) O-SO 1.00 h 5.8 UV-I 787 W/m 8.3 C 22.0 C 5.7 km/h (1 Bft)
26.04.2007 13:00 23.6 C 36 % 1014.1 hPa 0.0 l/m 3.1 km/h (1 Bft) W-NW 1.00 h 5.9 UV-I 795 W/m 7.7 C 23.6 C 5.2 km/h (1 Bft)
26.04.2007 14:00 25.0 C 31 % 1013.9 hPa 0.0 l/m 3.1 km/h (1 Bft) W-NW 1.00 h 5.4 UV-I 766 W/m 6.5 C 25.0 C 5.5 km/h (1 Bft)
26.04.2007 15:00 26.1 C 28 % 1013.6 hPa 0.0 l/m 2.8 km/h (1 Bft) W 1.00 h 4.2 UV-I 683 W/m 6.2 C 26.1 C 5.1 km/h (1 Bft)
26.04.2007 16:00 25.9 C 30 % 1013.5 hPa 0.0 l/m 3.8 km/h (1 Bft) O-SO 1.00 h 2.9 UV-I 561 W/m 6.8 C 25.9 C 6.4 km/h (2 Bft)
26.04.2007 17:00 25.4 C 31 % 1013.5 hPa 0.0 l/m 4.1 km/h (1 Bft) O-SO 1.00 h 1.7 UV-I 410 W/m 6.9 C 25.4 C 6.4 km/h (2 Bft)
26.04.2007 18:00 24.6 C 33 % 1013.7 hPa 0.0 l/m 4.0 km/h (1 Bft) SO 1.00 h 1.1 UV-I 243 W/m 7.4 C 24.6 C 6.5 km/h (2 Bft)
26.04.2007 19:00 23.4 C 37 % 1013.8 hPa 0.0 l/m 3.2 km/h (1 Bft) O-SO 0.33 h 1.1 UV-I 90 W/m 7.8 C 23.4 C 4.5 km/h (1 Bft)
26.04.2007 20:00 21.1 C 43 % 1014.4 hPa 0.0 l/m 1.7 km/h (1 Bft) O 0.00 h 0.0 UV-I 14 W/m 8.0 C 21.1 C 3.5 km/h (1 Bft)
26.04.2007 21:00 17.5 C 59 % 1015.4 hPa 0.0 l/m 1.3 km/h (1 Bft) O-SO 0.00 h 0.0 UV-I 0 W/m 9.3 C 17.5 C 2.3 km/h (1 Bft)
26.04.2007 22:00 15.7 C 64 % 1016.1 hPa 0.0 l/m 2.2 km/h (1 Bft) O 0.00 h 0.0 UV-I 0 W/m 9.0 C 15.7 C 3.3 km/h (1 Bft)
26.04.2007 23:00 14.2 C 70 % 1016.6 hPa 0.0 l/m 0.9 km/h (0 Bft) O 0.00 h 0.0 UV-I 0 W/m 8.7 C 14.2 C 2.0 km/h (1 Bft)
27.04.2007 00:00 12.8 C 74 % 1016.9 hPa 0.0 l/m 2.2 km/h (1 Bft) O 0.00 h 0.0 UV-I 0 W/m 8.3 C 12.8 C 3.1 km/h (1 Bft)
27.04.2007 01:00 11.8 C 78 % 1017.1 hPa 0.0 l/m 3.2 km/h (1 Bft) O 0.00 h 0.0 UV-I 0 W/m 8.0 C 11.8 C 4.7 km/h (1 Bft)
27.04.2007 02:00 11.0 C 80 % 1017.3 hPa 0.0 l/m 2.2 km/h (1 Bft) SO 0.00 h 0.0 UV-I 0 W/m 7.7 C 11.0 C 3.5 km/h (1 Bft)
27.04.2007 03:00 10.5 C 82 % 1017.4 hPa 0.0 l/m 0.1 km/h (0 Bft) SO 0.00 h 0.0 UV-I 0 W/m 7.6 C 10.5 C 0.7 km/h (0 Bft)
27.04.2007 04:00 10.1 C 86 % 1017.9 hPa 0.0 l/m 1.2 km/h (1 Bft) O-SO 0.00 h 0.0 UV-I 0 W/m 7.8 C 10.0 C 2.0 km/h (1 Bft)
27.04.2007 05:00 9.4 C 87 % 1018.2 hPa 0.0 l/m 1.6 km/h (1 Bft) SO 0.00 h 0.0 UV-I 0 W/m 7.4 C 9.4 C 2.3 km/h (1 Bft)
27.04.2007 06:00 9.2 C 88 % 1018.7 hPa 0.0 l/m 0.5 km/h (0 Bft) SO 0.03 h 0.0 UV-I 18 W/m 7.4 C 9.2 C 1.5 km/h (1 Bft)
27.04.2007 07:00 9.8 C 89 % 1019.3 hPa 0.0 l/m 0.0 km/h (0 Bft) N 0.00 h 0.5 UV-I 74 W/m 8.1 C 9.8 C 0.1 km/h (0 Bft)
27.04.2007 08:00 12.3 C 81 % 1019.7 hPa 0.0 l/m 0.0 km/h (0 Bft) N 0.95 h 1.0 UV-I 237 W/m 9.1 C 12.3 C 0.1 km/h (0 Bft)
27.04.2007 09:00 15.5 C 75 % 1019.5 hPa 0.0 l/m 0.8 km/h (0 Bft) SO 1.00 h 1.8 UV-I 403 W/m 11.1 C 15.5 C 1.9 km/h (1 Bft)
27.04.2007 10:00 19.6 C 68 % 1019.1 hPa 0.0 l/m 3.3 km/h (1 Bft) S-SO 1.00 h 3.1 UV-I 552 W/m 13.6 C 19.6 C 6.3 km/h (2 Bft)
27.04.2007 11:00 21.4 C 60 % 1019.0 hPa 0.0 l/m 2.8 km/h (1 Bft) W-SW 0.95 h 4.2 UV-I 640 W/m 13.2 C 21.4 C 5.2 km/h (1 Bft)
27.04.2007 12:00 21.8 C 56 % 1018.8 hPa 0.0 l/m 1.9 km/h (1 Bft) N-NW 0.47 h 4.1 UV-I 470 W/m 12.5 C 21.8 C 3.9 km/h (1 Bft)
27.04.2007 13:00 24.1 C 49 % 1018.3 hPa 0.0 l/m 4.0 km/h (1 Bft) W-SW 0.97 h 5.5 UV-I 764 W/m 12.5 C 24.1 C 6.5 km/h (2 Bft)
27.04.2007 14:00 25.2 C 44 % 1017.9 hPa 0.0 l/m 4.2 km/h (1 Bft) W 1.00 h 5.0 UV-I 752 W/m 11.9 C 25.2 C 6.7 km/h (2 Bft)
27.04.2007 15:00 25.5 C 42 % 1017.4 hPa 0.0 l/m 3.0 km/h (1 Bft) W 0.87 h 3.7 UV-I 608 W/m 11.5 C 25.5 C 5.1 km/h (1 Bft)
27.04.2007 16:00 25.2 C 43 % 1016.9 hPa 0.0 l/m 2.7 km/h (1 Bft) W-SW 0.48 h 2.2 UV-I 435 W/m 11.6 C 25.2 C 4.8 km/h (1 Bft)
27.04.2007 17:00 24.0 C 46 % 1016.7 hPa 0.0 l/m 2.2 km/h (1 Bft) W 0.38 h 1.2 UV-I 265 W/m 11.6 C 24.0 C 3.9 km/h (1 Bft)
27.04.2007 18:00 23.3 C 48 % 1017.3 hPa 0.0 l/m 3.9 km/h (1 Bft) SO 0.62 h 1.1 UV-I 212 W/m 11.6 C 23.3 C 7.2 km/h (2 Bft)
27.04.2007 19:00 21.0 C 54 % 1018.1 hPa 0.0 l/m 4.9 km/h (1 Bft) W 0.37 h 1.0 UV-I 85 W/m 11.4 C 21.0 C 8.1 km/h (2 Bft)
27.04.2007 20:00 17.2 C 75 % 1019.3 hPa 0.6 l/m 2.4 km/h (1 Bft) S-SO 0.00 h 0.0 UV-I 0 W/m 12.7 C 17.2 C 5.1 km/h (1 Bft)
27.04.2007 21:00 15.5 C 83 % 1019.5 hPa 0.0 l/m 2.5 km/h (1 Bft) N-NW 0.00 h 0.0 UV-I 0 W/m 12.7 C 15.5 C 4.4 km/h (1 Bft)
27.04.2007 22:00 13.7 C 90 % 1019.6 hPa 0.0 l/m 4.3 km/h (1 Bft) O-SO 0.00 h 0.0 UV-I 0 W/m 12.0 C 13.7 C 5.5 km/h (1 Bft)
27.04.2007 23:00 13.1 C 90 % 1019.6 hPa 0.0 l/m 3.9 km/h (1 Bft) O-SO 0.00 h 0.0 UV-I 0 W/m 11.5 C 13.1 C 5.7 km/h (1 Bft)
28.04.2007 00:00 12.2 C 92 % 1020.0 hPa 0.0 l/m 1.4 km/h (1 Bft) SO 0.00 h 0.0 UV-I 0 W/m 10.9 C 12.2 C 2.4 km/h (1 Bft)
28.04.2007 01:00 11.5 C 94 % 1020.4 hPa 0.0 l/m 1.6 km/h (1 Bft) SO 0.00 h 0.0 UV-I 0 W/m 10.6 C 11.5 C 2.8 km/h (1 Bft)
28.04.2007 02:00 11.0 C 95 % 1020.3 hPa 0.0 l/m 1.1 km/h (1 Bft) SO 0.00 h 0.0 UV-I 0 W/m 10.2 C 11.0 C 1.6 km/h (1 Bft)
28.04.2007 03:00 10.3 C 97 % 1020.2 hPa 0.0 l/m 1.1 km/h (1 Bft) SO 0.00 h 0.0 UV-I 0 W/m 9.7 C 10.3 C 2.0 km/h (1 Bft)
28.04.2007 04:00 10.2 C 97 % 1020.6 hPa 0.0 l/m 0.1 km/h (0 Bft) SO 0.00 h 0.0 UV-I 0 W/m 9.7 C 10.2 C 0.5 km/h (0 Bft)
28.04.2007 05:00 10.4 C 97 % 1020.8 hPa 0.0 l/m 0.0 km/h (0 Bft) N 0.00 h 0.0 UV-I 0 W/m 10.0 C 10.4 C 0.0 km/h (0 Bft)
28.04.2007 06:00 10.6 C 97 % 1021.1 hPa 0.0 l/m 0.1 km/h (0 Bft) SO 0.00 h 0.0 UV-I 21 W/m 10.2 C 10.6 C 0.5 km/h (0 Bft)
28.04.2007 07:00 11.4 C 96 % 1021.6 hPa 0.0 l/m 0.4 km/h (0 Bft) SO 0.00 h 0.5 UV-I 79 W/m 10.8 C 11.4 C 1.1 km/h (1 Bft)
28.04.2007 08:00 12.8 C 91 % 1022.0 hPa 0.0 l/m 0.6 km/h (0 Bft) SO 0.43 h 0.9 UV-I 202 W/m 11.4 C 12.8 C 1.7 km/h (1 Bft)
28.04.2007 09:00 15.2 C 83 % 1022.0 hPa 0.0 l/m 1.0 km/h (0 Bft) O-SO 1.00 h 1.8 UV-I 397 W/m 12.3 C 15.2 C 2.7 km/h (1 Bft)
28.04.2007 10:00 18.1 C 73 % 1021.4 hPa 0.0 l/m 1.9 km/h (1 Bft) W 1.00 h 3.0 UV-I 544 W/m 13.3 C 18.1 C 4.0 km/h (1 Bft)
28.04.2007 11:00 20.5 C 65 % 1020.9 hPa 0.0 l/m 3.4 km/h (1 Bft) W 1.00 h 4.3 UV-I 662 W/m 13.6 C 20.5 C 6.2 km/h (2 Bft)
28.04.2007 12:00 22.2 C 60 % 1020.5 hPa 0.0 l/m 2.2 km/h (1 Bft) W-SW 1.00 h 5.2 UV-I 742 W/m 14.0 C 22.2 C 4.6 km/h (1 Bft)
28.04.2007 13:00 23.2 C 55 % 1019.8 hPa 0.0 l/m 3.4 km/h (1 Bft) W-NW 1.00 h 5.5 UV-I 766 W/m 13.5 C 23.2 C 5.5 km/h (1 Bft)
28.04.2007 14:00 24.5 C 47 % 1019.2 hPa 0.0 l/m 3.8 km/h (1 Bft) W 1.00 h 5.1 UV-I 747 W/m 12.4 C 24.5 C 6.1 km/h (2 Bft)
28.04.2007 15:00 25.8 C 40 % 1018.4 hPa 0.0 l/m 4.2 km/h (1 Bft) W-NW 1.00 h 4.1 UV-I 682 W/m 11.2 C 25.8 C 6.4 km/h (2 Bft)
28.04.2007 16:00 25.5 C 37 % 1017.7 hPa 0.0 l/m 4.2 km/h (1 Bft) W-NW 0.80 h 2.7 UV-I 479 W/m 9.7 C 25.5 C 6.2 km/h (2 Bft)
28.04.2007 17:00 25.9 C 35 % 1017.0 hPa 0.0 l/m 3.4 km/h (1 Bft) W 1.00 h 1.6 UV-I 399 W/m 9.2 C 25.9 C 5.7 km/h (1 Bft)
28.04.2007 18:00 25.4 C 37 % 1016.6 hPa 0.0 l/m 3.5 km/h (1 Bft) W 1.00 h 1.3 UV-I 238 W/m 9.5 C 25.4 C 5.6 km/h (1 Bft)
28.04.2007 19:00 23.8 C 43 % 1016.5 hPa 0.0 l/m 4.0 km/h (1 Bft) W-NW 0.30 h 1.1 UV-I 87 W/m 10.4 C 23.8 C 6.7 km/h (2 Bft)
28.04.2007 20:00 21.2 C 51 % 1017.1 hPa 0.0 l/m 0.5 km/h (0 Bft) O-NO 0.02 h 0.0 UV-I 16 W/m 10.5 C 21.2 C 1.6 km/h (1 Bft)
28.04.2007 21:00 19.2 C 59 % 1017.6 hPa 0.0 l/m 0.2 km/h (0 Bft) O-NO 0.00 h 0.0 UV-I 0 W/m 11.0 C 19.2 C 0.7 km/h (0 Bft)
28.04.2007 22:00 17.7 C 68 % 1017.7 hPa 0.0 l/m 0.1 km/h (0 Bft) O-NO 0.00 h 0.0 UV-I 0 W/m 11.6 C 17.7 C 0.4 km/h (0 Bft)
28.04.2007 23:00 16.2 C 74 % 1017.6 hPa 0.0 l/m 0.5 km/h (0 Bft) O-NO 0.00 h 0.0 UV-I 0 W/m 11.5 C 16.2 C 1.3 km/h (1 Bft)
29.04.2007 00:00 15.4 C 77 % 1017.5 hPa 0.0 l/m 2.6 km/h (1 Bft) SO 0.00 h 0.0 UV-I 0 W/m 11.3 C 15.4 C 3.7 km/h (1 Bft)
29.04.2007 01:00 14.8 C 79 % 1017.7 hPa 0.0 l/m 2.5 km/h (1 Bft) O-SO 0.00 h 0.0 UV-I 0 W/m 11.1 C 14.8 C 3.7 km/h (1 Bft)
29.04.2007 02:00 14.1 C 82 % 1017.5 hPa 0.0 l/m 1.5 km/h (1 Bft) SO 0.00 h 0.0 UV-I 0 W/m 11.0 C 14.1 C 2.5 km/h (1 Bft)
29.04.2007 03:00 13.9 C 83 % 1017.1 hPa 0.0 l/m 0.5 km/h (0 Bft) O 0.00 h 0.0 UV-I 0 W/m 11.1 C 13.9 C 1.0 km/h (0 Bft)
29.04.2007 04:00 13.8 C 84 % 1017.0 hPa 0.0 l/m 0.7 km/h (0 Bft) O 0.00 h 0.0 UV-I 0 W/m 11.1 C 13.8 C 1.5 km/h (1 Bft)
29.04.2007 05:00 12.7 C 88 % 1016.8 hPa 0.0 l/m 1.7 km/h (1 Bft) O 0.00 h 0.0 UV-I 0 W/m 10.9 C 12.7 C 2.6 km/h (1 Bft)
29.04.2007 06:00 11.9 C 89 % 1016.7 hPa 0.0 l/m 2.1 km/h (1 Bft) O-SO 0.00 h 0.0 UV-I 18 W/m 10.2 C 11.9 C 3.2 km/h (1 Bft)
29.04.2007 07:00 12.2 C 90 % 1016.9 hPa 0.0 l/m 1.5 km/h (1 Bft) O-SO 0.00 h 0.6 UV-I 51 W/m 10.7 C 12.2 C 2.6 km/h (1 Bft)
29.04.2007 08:00 13.2 C 89 % 1016.8 hPa 0.0 l/m 0.0 km/h (0 Bft) N 0.00 h 0.9 UV-I 138 W/m 11.4 C 13.2 C 0.0 km/h (0 Bft)
29.04.2007 09:00 15.2 C 79 % 1016.6 hPa 0.0 l/m 0.4 km/h (0 Bft) O 0.25 h 1.8 UV-I 297 W/m 11.6 C 15.2 C 1.6 km/h (1 Bft)
29.04.2007 10:00 18.0 C 67 % 1015.9 hPa 0.0 l/m 1.9 km/h (1 Bft) W-NW 1.00 h 3.2 UV-I 572 W/m 11.8 C 18.0 C 3.8 km/h (1 Bft)
29.04.2007 11:00 20.4 C 58 % 1015.3 hPa 0.0 l/m 3.1 km/h (1 Bft) W-NW 1.00 h 4.4 UV-I 673 W/m 11.9 C 20.4 C 5.1 km/h (1 Bft)
29.04.2007 12:00 22.6 C 50 % 1014.7 hPa 0.0 l/m 2.6 km/h (1 Bft) W 1.00 h 5.3 UV-I 742 W/m 11.6 C 22.6 C 4.6 km/h (1 Bft)
29.04.2007 13:00 24.7 C 40 % 1013.6 hPa 0.0 l/m 5.4 km/h (1 Bft) O-SO 1.00 h 5.8 UV-I 768 W/m 10.1 C 24.7 C 8.7 km/h (2 Bft)
29.04.2007 14:00 25.5 C 34 % 1012.7 hPa 0.0 l/m 7.7 km/h (2 Bft) O-SO 1.00 h 5.3 UV-I 743 W/m 8.4 C 25.5 C 12.6 km/h (3 Bft)
29.04.2007 15:00 25.7 C 31 % 1011.8 hPa 0.0 l/m 4.7 km/h (1 Bft) O-SO 0.73 h 3.9 UV-I 533 W/m 7.0 C 25.7 C 8.8 km/h (2 Bft)
29.04.2007 16:00 25.6 C 32 % 1010.9 hPa 0.0 l/m 4.6 km/h (1 Bft) N 0.70 h 2.6 UV-I 447 W/m 7.7 C 25.6 C 8.7 km/h (2 Bft)
29.04.2007 17:00 24.7 C 37 % 1010.4 hPa 0.0 l/m 7.7 km/h (2 Bft) N-NW 0.42 h 1.5 UV-I 273 W/m 9.1 C 24.7 C 12.7 km/h (3 Bft)
29.04.2007 18:00 22.9 C 43 % 1010.3 hPa 0.0 l/m 7.5 km/h (2 Bft) N-NW 0.12 h 1.0 UV-I 132 W/m 9.5 C 22.9 C 12.0 km/h (2 Bft)
29.04.2007 19:00 22.3 C 45 % 1010.0 hPa 0.0 l/m 1.6 km/h (1 Bft) N-NW 0.02 h 1.1 UV-I 72 W/m 9.7 C 22.3 C 3.5 km/h (1 Bft)
29.04.2007 20:00 21.1 C 45 % 1010.4 hPa 0.0 l/m 3.0 km/h (1 Bft) NO 0.00 h 0.0 UV-I 17 W/m 8.9 C 21.1 C 5.9 km/h (2 Bft)
29.04.2007 21:00 19.0 C 56 % 1011.0 hPa 0.0 l/m 0.9 km/h (0 Bft) O 0.00 h 0.0 UV-I 0 W/m 9.9 C 19.0 C 2.2 km/h (1 Bft)
29.04.2007 22:00 17.6 C 63 % 1011.8 hPa 0.0 l/m 2.1 km/h (1 Bft) S-SO 0.00 h 0.0 UV-I 0 W/m 10.5 C 17.6 C 4.4 km/h (1 Bft)
29.04.2007 23:00 15.7 C 72 % 1012.0 hPa 0.0 l/m 3.2 km/h (1 Bft) O-SO 0.00 h 0.0 UV-I 0 W/m 10.7 C 15.7 C 4.8 km/h (1 Bft)
Min-Datum _ 23.04.07 23.04.07 29.04.07 - 23.04.07 - - - - 23.04.07 23.04.07 23.04.07
_ Min-Zeit 06:22 15:37 19:15 - 00:00 - - - - 15:37 06:22 00:10
Minimum _ 6.6 C 21 % 1009.9 hPa - 0.0 km/h (0 Bft) - - - - 2.2 C 6.6 C 0.0 km/h (0 Bft)
Max-Datum _ 23.04.07 28.04.07 23.04.07 27.04.07 23.04.07 - 23.04.07 24.04.07 24.04.07 28.04.07 23.04.07 23.04.07
_ Max-Zeit 16:54 03:47 08:15 20:14 14:33 - 06:35 12:58 11:57 12:15 16:54 14:33
Maximum _ 27.1 C 98 % 1024.2 hPa 0.6 l/m 17.9 km/h
W-SW (3 Bft)
- 0.02 h 6.7 UV-I 902 W/m 15.4 C 27.1 C 27.8 km/h
W-SW (4 Bft)
Durchschnitt _ 17.6 C 62 % 1017.3 hPa #0.6 l/m 2.4 km/h (1 Bft) O-SO #70:22 h 2.9 UV-I 396 W/m 9.1 C 17.6 C 4.2 km/h (1 Bft)
© Kaiko 2007